createdAt,value
2018-12-05T00:05:16.974Z,9.87
2018-12-05T00:08:04.280Z,9.20
2018-12-05T00:10:51.536Z,9.33
2018-12-05T00:13:38.606Z,9.57
2018-12-05T00:16:06.251Z,8.27
2018-12-05T00:19:14.667Z,9.33
2018-12-05T00:22:01.953Z,8.90
2018-12-05T00:24:49.274Z,7.53
2018-12-05T00:27:58.238Z,8.17
2018-12-05T00:30:57.695Z,8.17
2018-12-05T00:33:44.956Z,9.17
2018-12-05T00:36:32.028Z,7.63
2018-12-05T00:39:19.309Z,6.73
2018-12-05T00:42:06.640Z,9.93
2018-12-05T00:44:53.903Z,9.73
2018-12-05T00:47:41.210Z,6.93
2018-12-05T00:50:28.469Z,11.30
2018-12-05T00:53:15.767Z,9.90
2018-12-05T00:56:02.818Z,5.80
2018-12-05T00:58:50.085Z,8.93
2018-12-05T01:01:37.388Z,7.53
2018-12-05T01:04:45.799Z,11.73
2018-12-05T01:07:33.308Z,9.43
2018-12-05T01:13:17.129Z,8.17
2018-12-05T01:16:04.434Z,8.80
2018-12-05T01:18:51.719Z,8.53
2018-12-05T01:21:39.093Z,9.27
2018-12-05T01:24:26.981Z,10.80
2018-12-05T01:30:03.289Z,9.30
2018-12-05T01:33:11.717Z,9.13
2018-12-05T01:36:20.114Z,10.17
2018-12-05T01:39:07.620Z,12.80
2018-12-05T01:42:16.065Z,9.57
2018-12-05T01:50:43.593Z,10.27
2018-12-05T01:53:30.919Z,8.30
2018-12-05T01:56:18.186Z,11.67
2018-12-05T01:59:05.517Z,9.03
2018-12-05T02:01:52.844Z,7.60
2018-12-05T02:04:39.911Z,13.33
2018-12-05T02:07:07.655Z,7.80
2018-12-05T02:09:54.899Z,9.83
2018-12-05T02:12:42.201Z,12.93
2018-12-05T02:15:09.930Z,12.67
2018-12-05T02:17:57.244Z,10.80
2018-12-05T02:20:24.949Z,11.57
2018-12-05T02:23:12.267Z,6.90
2018-12-05T02:25:39.973Z,7.77
2018-12-05T02:28:27.283Z,8.20
2018-12-05T02:31:15.317Z,9.87
2018-12-05T02:33:43.334Z,11.40
2018-12-05T02:36:11.039Z,11.27
2018-12-05T02:38:58.789Z,12.63
2018-12-05T02:42:07.166Z,12.50
2018-12-05T02:44:34.830Z,11.03
2018-12-05T02:47:22.266Z,13.33
2018-12-05T02:50:10.147Z,9.37
2018-12-05T02:55:53.573Z,12.10
2018-12-05T02:58:40.802Z,13.47
2018-12-05T03:01:08.481Z,10.07
2018-12-05T03:03:55.714Z,10.50
2018-12-05T03:06:23.352Z,11.53
2018-12-05T03:08:51.029Z,8.77
2018-12-05T03:11:18.703Z,7.87
2018-12-05T03:14:06.009Z,10.47
2018-12-05T03:16:53.188Z,13.10
2018-12-05T03:19:40.406Z,12.77
2018-12-05T03:22:27.445Z,11.30
2018-12-05T03:25:14.673Z,6.40
2018-12-05T03:28:01.668Z,9.60
2018-12-05T03:30:29.430Z,9.13
2018-12-05T03:33:16.607Z,11.03
2018-12-05T03:36:03.839Z,8.17
2018-12-05T03:38:51.693Z,6.60
2018-12-05T03:44:34.751Z,9.50
2018-12-05T03:47:21.964Z,6.57
2018-12-05T03:50:09.141Z,11.03
2018-12-05T03:52:36.819Z,9.47
2018-12-05T03:58:19.151Z,6.93
2018-12-05T04:01:27.487Z,8.03
2018-12-05T04:04:14.529Z,7.60
2018-12-05T04:07:01.747Z,8.67
2018-12-05T04:09:48.963Z,6.27
2018-12-05T04:12:40.597Z,8.33
2018-12-05T04:15:47.057Z,10.13
2018-12-05T04:18:34.143Z,7.50
2018-12-05T04:21:21.434Z,6.97
2018-12-05T04:24:08.627Z,8.50
2018-12-05T04:26:55.850Z,13.83
2018-12-05T04:30:04.232Z,6.70
2018-12-05T04:33:12.882Z,10.37
2018-12-05T04:38:53.549Z,12.40
2018-12-05T04:41:40.836Z,7.80
2018-12-05T04:44:28.807Z,9.07
2018-12-05T04:47:16.040Z,9.40
2018-12-05T04:50:03.282Z,10.37
2018-12-05T04:52:50.510Z,10.17
2018-12-05T04:55:37.733Z,9.50
2018-12-05T05:01:13.410Z,8.63
2018-12-05T05:04:00.610Z,8.07
2018-12-05T05:06:47.839Z,10.10
2018-12-05T05:09:15.473Z,9.60
2018-12-05T05:12:23.869Z,13.17
2018-12-05T05:18:17.706Z,9.87
2018-12-05T05:21:28.256Z,8.07
2018-12-05T05:24:38.587Z,12.27
2018-12-05T05:27:25.798Z,8.00
2018-12-05T05:30:12.984Z,9.63
2018-12-05T05:33:00.278Z,10.33
2018-12-05T05:35:47.526Z,9.67
2018-12-05T05:38:34.756Z,12.70
2018-12-05T05:41:21.926Z,15.07
2018-12-05T05:44:10.284Z,12.37
2018-12-05T05:46:58.339Z,14.37
2018-12-05T05:49:26.099Z,9.73
2018-12-05T05:52:13.282Z,15.67
2018-12-05T05:55:21.714Z,10.57
2018-12-05T05:58:09.127Z,14.90
2018-12-05T06:03:31.583Z,13.23
2018-12-05T06:06:18.888Z,12.97
2018-12-05T06:09:06.187Z,13.00
2018-12-05T06:11:53.451Z,10.40
2018-12-05T06:15:02.511Z,10.47
2018-12-05T06:18:11.271Z,11.97
2018-12-05T06:23:32.309Z,12.90
2018-12-05T06:26:19.738Z,13.00
2018-12-05T06:29:07.048Z,11.90
2018-12-05T06:31:54.360Z,14.23
2018-12-05T06:37:28.579Z,12.33
2018-12-05T06:40:16.266Z,11.07
2018-12-05T06:43:24.638Z,9.47
2018-12-05T06:46:11.970Z,9.03
2018-12-05T06:49:22.834Z,10.70
2018-12-05T06:52:12.824Z,12.97
2018-12-05T06:55:00.432Z,9.60
2018-12-05T06:58:09.822Z,14.17
2018-12-05T07:00:57.246Z,12.80
2018-12-05T07:04:06.439Z,11.53
2018-12-05T07:07:14.832Z,10.63
2018-12-05T07:09:42.474Z,10.80
2018-12-05T07:12:29.700Z,11.43
2018-12-05T07:14:57.344Z,14.77
2018-12-05T07:17:44.644Z,15.00
2018-12-05T07:20:31.963Z,13.53
2018-12-05T07:23:19.151Z,11.07
2018-12-05T07:26:06.443Z,7.10
2018-12-05T07:28:53.738Z,12.07
2018-12-05T07:31:40.975Z,12.83
2018-12-05T07:34:28.270Z,11.00
2018-12-05T07:37:15.568Z,12.90
2018-12-05T07:40:02.760Z,16.47
2018-12-05T07:42:49.976Z,11.77
2018-12-05T07:45:37.267Z,9.93
2018-12-05T07:48:24.577Z,13.30
2018-12-05T07:51:12.608Z,12.77
2018-12-05T07:54:23.741Z,11.20
2018-12-05T07:59:47.338Z,13.67
2018-12-05T08:02:34.524Z,19.13
2018-12-05T08:05:21.571Z,12.33
2018-12-05T08:13:51.791Z,14.60
2018-12-05T08:16:39.089Z,17.40
2018-12-05T08:19:06.774Z,14.80
2018-12-05T08:21:34.421Z,16.27
2018-12-05T08:24:02.102Z,14.37
2018-12-05T08:26:49.325Z,12.80
2018-12-05T08:29:36.552Z,16.60
2018-12-05T08:32:23.557Z,15.07
2018-12-05T08:34:51.246Z,15.87
2018-12-05T08:37:18.920Z,13.87
2018-12-05T08:40:06.175Z,18.10
2018-12-05T08:42:33.921Z,16.03
2018-12-05T08:45:20.967Z,17.43
2018-12-05T08:48:08.149Z,12.70
2018-12-05T08:50:35.849Z,16.23
2018-12-05T08:53:23.050Z,11.00
2018-12-05T08:56:10.279Z,10.90
2018-12-05T08:58:57.459Z,14.47
2018-12-05T09:01:25.136Z,13.33
2018-12-05T09:03:52.820Z,12.67
2018-12-05T09:06:40.005Z,14.00
2018-12-05T09:09:08.235Z,16.87
2018-12-05T09:12:18.738Z,13.73
2018-12-05T09:15:27.792Z,15.00
2018-12-05T09:18:36.801Z,13.57
2018-12-05T09:21:06.505Z,12.80
2018-12-05T09:23:53.723Z,11.23
2018-12-05T09:26:40.911Z,14.03
2018-12-05T09:29:28.222Z,11.13
2018-12-05T09:31:55.909Z,10.87
2018-12-05T09:34:23.545Z,16.83
2018-12-05T09:37:10.763Z,9.13
2018-12-05T09:39:38.427Z,10.97
2018-12-05T09:42:06.067Z,12.13
2018-12-05T09:44:53.308Z,14.23
2018-12-05T09:47:40.585Z,13.40
2018-12-05T09:50:48.981Z,14.63
2018-12-05T09:53:16.667Z,15.27
2018-12-05T09:56:03.964Z,14.87
2018-12-05T09:58:31.646Z,11.83
2018-12-05T10:01:18.828Z,14.37
2018-12-05T10:04:06.116Z,10.83
2018-12-05T10:06:33.797Z,13.40
2018-12-05T10:09:01.445Z,13.30
2018-12-05T10:11:48.747Z,11.20
2018-12-05T10:14:35.922Z,11.77
2018-12-05T10:17:23.131Z,9.47
2018-12-05T10:19:50.813Z,10.73
2018-12-05T10:22:18.443Z,7.73
2018-12-05T10:25:05.686Z,11.10
2018-12-05T10:27:53.039Z,8.77
2018-12-05T10:30:43.059Z,8.30
2018-12-05T10:36:47.864Z,9.10
2018-12-05T10:39:35.037Z,9.57
2018-12-05T10:42:22.247Z,7.70
2018-12-05T10:45:09.537Z,8.93
2018-12-05T10:47:56.707Z,9.40
2018-12-05T10:50:44.020Z,8.77
2018-12-05T10:53:31.251Z,7.33
2018-12-05T10:55:58.893Z,8.73
2018-12-05T10:58:46.244Z,7.73
2018-12-05T11:01:52.788Z,8.13
2018-12-05T11:04:59.368Z,7.80
2018-12-05T11:07:46.369Z,8.60
2018-12-05T11:10:33.413Z,9.17
2018-12-05T11:13:40.240Z,8.50
2018-12-05T11:16:47.380Z,7.80
2018-12-05T11:19:54.850Z,7.17
2018-12-05T11:22:43.092Z,8.30
2018-12-05T11:28:24.924Z,9.43
2018-12-05T11:31:12.114Z,8.47
2018-12-05T11:33:59.321Z,6.80
2018-12-05T11:36:46.323Z,6.60
2018-12-05T11:39:13.990Z,9.37
2018-12-05T11:41:41.693Z,8.70
2018-12-05T11:44:28.934Z,7.17
2018-12-05T11:47:15.978Z,10.03
2018-12-05T11:49:43.616Z,9.70
2018-12-05T11:52:30.836Z,10.20
2018-12-05T11:55:18.008Z,6.47
2018-12-05T11:57:45.696Z,5.50
2018-12-05T12:00:32.975Z,6.67
2018-12-05T12:03:20.266Z,9.70
2018-12-05T12:05:47.906Z,10.80
2018-12-05T12:08:35.147Z,7.83
2018-12-05T12:11:23.086Z,7.47
2018-12-05T12:13:51.798Z,9.93
2018-12-05T12:19:33.479Z,7.37
2018-12-05T12:22:01.106Z,8.63
2018-12-05T12:24:34.812Z,7.63
2018-12-05T12:27:17.978Z,8.43
2018-12-05T12:30:05.274Z,8.10
2018-12-05T12:32:52.496Z,11.00
2018-12-05T12:35:20.135Z,8.47
2018-12-05T12:38:07.359Z,9.27
2018-12-05T12:40:54.393Z,6.73
2018-12-05T12:43:22.037Z,11.67
2018-12-05T12:46:09.283Z,9.40
2018-12-05T12:48:36.963Z,14.80
2018-12-05T12:51:24.187Z,9.40
2018-12-05T12:54:11.490Z,9.00
2018-12-05T12:56:58.665Z,10.17
2018-12-05T12:59:26.353Z,8.83
2018-12-05T13:01:53.988Z,6.73
2018-12-05T13:04:21.625Z,7.70
2018-12-05T13:06:49.307Z,10.53
2018-12-05T13:09:36.562Z,5.20
2018-12-05T13:12:04.240Z,7.13
2018-12-05T13:14:31.917Z,6.33
2018-12-05T13:17:19.094Z,8.93
2018-12-05T13:20:06.333Z,8.50
2018-12-05T13:22:33.967Z,8.00
2018-12-05T13:25:22.024Z,7.70
2018-12-05T13:28:32.509Z,8.60
2018-12-05T13:34:14.220Z,6.97
2018-12-05T13:37:01.459Z,8.10
2018-12-05T13:39:48.683Z,7.33
2018-12-05T13:42:35.853Z,7.60
2018-12-05T13:45:03.639Z,5.97
2018-12-05T13:47:50.898Z,7.40
2018-12-05T13:50:37.938Z,8.23
2018-12-05T13:53:05.640Z,6.10
2018-12-05T13:55:52.936Z,6.80
2018-12-05T13:58:20.691Z,6.60
2018-12-05T14:00:48.328Z,6.87
2018-12-05T14:03:16.013Z,8.37
2018-12-05T14:06:24.353Z,9.03
2018-12-05T14:09:11.927Z,6.43
2018-12-05T14:11:39.562Z,5.93
2018-12-05T14:14:26.852Z,6.50
2018-12-05T14:16:54.490Z,6.00
2018-12-05T14:19:22.166Z,5.33
2018-12-05T14:21:49.798Z,7.23
2018-12-05T14:24:17.440Z,6.60
2018-12-05T14:27:04.662Z,7.00
2018-12-05T14:29:51.902Z,8.07
2018-12-05T14:33:00.287Z,6.53
2018-12-05T14:35:48.877Z,6.17
2018-12-05T14:38:36.570Z,7.07
2018-12-05T14:41:23.578Z,14.03
2018-12-05T14:44:10.793Z,6.43
2018-12-05T14:46:38.425Z,9.10
2018-12-05T14:49:25.489Z,8.57
2018-12-05T14:52:12.667Z,5.47
2018-12-05T14:54:59.905Z,4.10
2018-12-05T14:57:47.156Z,7.20
2018-12-05T15:00:34.201Z,7.97
2018-12-05T15:03:21.442Z,7.40
2018-12-05T15:06:08.675Z,7.17
2018-12-05T15:08:55.894Z,7.90
2018-12-05T15:11:42.896Z,7.20
2018-12-05T15:14:30.214Z,7.43
2018-12-05T15:16:57.855Z,6.90
2018-12-05T15:19:45.141Z,12.30
2018-12-05T15:22:32.434Z,8.87
2018-12-05T15:25:19.612Z,8.43
2018-12-05T15:28:06.643Z,7.93
2018-12-05T15:30:53.865Z,7.50
2018-12-05T15:33:41.049Z,10.23
2018-12-05T15:36:28.098Z,9.63
2018-12-05T15:39:15.272Z,9.00
2018-12-05T15:42:02.573Z,10.57
2018-12-05T15:44:49.786Z,9.23
2018-12-05T15:47:37.043Z,10.80
2018-12-05T15:50:45.424Z,10.57
2018-12-05T15:53:32.610Z,10.03
2018-12-05T15:56:19.819Z,9.03
2018-12-05T15:59:07.077Z,12.43
2018-12-05T16:01:54.363Z,10.47
2018-12-05T16:04:41.614Z,11.53
2018-12-05T16:07:28.845Z,10.43
2018-12-05T16:10:16.094Z,9.37
2018-12-05T16:13:05.120Z,10.23
2018-12-05T16:15:52.466Z,14.67
2018-12-05T16:18:39.524Z,12.87
2018-12-05T16:21:26.743Z,12.03
2018-12-05T16:24:14.034Z,11.33
2018-12-05T16:27:01.224Z,11.17
2018-12-05T16:29:48.458Z,16.30
2018-12-05T16:32:35.455Z,14.40
2018-12-05T16:35:03.137Z,11.27
2018-12-05T16:37:51.573Z,11.33
2018-12-05T16:40:39.261Z,10.30
2018-12-05T16:43:26.476Z,10.33
2018-12-05T16:46:13.701Z,9.73
2018-12-05T16:49:00.956Z,11.10
2018-12-05T16:51:48.256Z,8.93
2018-12-05T16:54:35.606Z,12.13
2018-12-05T16:57:22.828Z,12.50
2018-12-05T17:00:10.133Z,11.43
2018-12-05T17:02:57.406Z,12.20
2018-12-05T17:05:44.630Z,10.33
2018-12-05T17:08:31.923Z,11.67
2018-12-05T17:11:19.104Z,11.53
2018-12-05T17:14:06.409Z,13.03
2018-12-05T17:16:53.706Z,10.73
2018-12-05T17:19:21.392Z,12.57
2018-12-05T17:22:08.569Z,11.53
2018-12-05T17:24:55.870Z,10.80
2018-12-05T17:27:43.069Z,12.47
2018-12-05T17:30:10.756Z,15.43
2018-12-05T17:32:57.941Z,12.07
2018-12-05T17:36:06.325Z,11.50
2018-12-05T17:38:33.970Z,12.50
2018-12-05T17:41:21.220Z,10.83
2018-12-05T17:44:08.692Z,13.23
2018-12-05T17:46:59.418Z,10.97
2018-12-05T17:49:47.641Z,12.73
2018-12-05T17:52:36.642Z,10.87
2018-12-05T17:55:45.175Z,11.00
2018-12-05T17:58:53.553Z,9.40
2018-12-05T18:01:40.854Z,9.90
2018-12-05T18:04:27.860Z,12.43
2018-12-05T18:07:15.131Z,9.83
2018-12-05T18:10:02.423Z,12.93
2018-12-05T18:12:51.358Z,13.23
2018-12-05T18:15:38.574Z,9.20
2018-12-05T18:18:25.747Z,9.33
2018-12-05T18:21:13.059Z,10.37
2018-12-05T18:24:00.394Z,13.40
2018-12-05T18:26:47.693Z,8.33
2018-12-05T18:29:34.963Z,12.50
2018-12-05T18:32:22.183Z,8.40
2018-12-05T18:35:09.358Z,10.27
2018-12-05T18:37:56.571Z,9.20
2018-12-05T18:40:43.615Z,8.77
2018-12-05T18:43:30.912Z,9.77
2018-12-05T18:46:39.257Z,9.07
2018-12-05T18:49:26.699Z,8.73
2018-12-05T18:52:13.946Z,9.13
2018-12-05T18:55:01.173Z,7.37
2018-12-05T18:57:48.393Z,8.20
2018-12-05T19:00:16.062Z,8.53
2018-12-05T19:02:43.699Z,7.00
2018-12-05T19:05:30.915Z,9.93
2018-12-05T19:08:18.165Z,5.63
2018-12-05T19:11:05.464Z,8.50
2018-12-05T19:16:45.141Z,7.33
2018-12-05T19:19:32.436Z,6.83
2018-12-05T19:22:19.608Z,5.57
2018-12-05T19:27:42.768Z,5.40
2018-12-05T19:30:29.943Z,7.17
2018-12-05T19:33:17.162Z,5.97
2018-12-05T19:36:04.420Z,4.70
2018-12-05T19:38:51.454Z,8.03
2018-12-05T19:41:38.773Z,5.87
2018-12-05T19:44:25.967Z,6.33
2018-12-05T19:47:13.182Z,8.33
2018-12-05T19:50:00.775Z,5.93
2018-12-05T19:52:48.070Z,6.43
2018-12-05T19:55:15.705Z,7.13
2018-12-05T19:58:02.924Z,6.10
2018-12-05T20:00:50.171Z,7.00
2018-12-05T20:03:58.538Z,7.37
2018-12-05T20:06:26.169Z,6.03
2018-12-05T20:09:13.686Z,8.93
2018-12-05T20:12:02.662Z,7.33
2018-12-05T20:14:49.873Z,6.33
2018-12-05T20:17:37.047Z,7.27
2018-12-05T20:20:45.434Z,9.00
2018-12-05T20:23:32.683Z,9.10
2018-12-05T20:26:19.983Z,10.63
2018-12-05T20:29:07.282Z,11.60
2018-12-05T20:31:54.468Z,8.37
2018-12-05T20:34:41.690Z,7.97
2018-12-05T20:37:28.884Z,11.03
2018-12-05T20:40:37.257Z,9.27
2018-12-05T20:43:25.053Z,9.13
2018-12-05T20:46:35.658Z,9.20
2018-12-05T20:49:44.348Z,10.97
2018-12-05T20:52:53.451Z,8.13
2018-12-05T20:55:41.408Z,7.20
2018-12-05T20:58:30.495Z,7.87
2018-12-05T21:01:38.853Z,9.47
2018-12-05T21:04:26.783Z,16.97
2018-12-05T21:07:37.323Z,12.67
2018-12-05T21:10:45.893Z,14.60
2018-12-05T21:13:54.988Z,7.53
2018-12-05T21:17:03.566Z,16.43
2018-12-05T21:19:51.483Z,11.90
2018-12-05T21:22:38.776Z,7.17
2018-12-05T21:31:14.809Z,8.07
2018-12-05T21:37:31.291Z,8.47
2018-12-05T21:40:18.485Z,11.20
2018-12-05T21:43:05.710Z,10.70
2018-12-05T21:45:52.952Z,12.37
2018-12-05T21:48:40.274Z,15.30
2018-12-05T21:51:27.516Z,13.97
2018-12-05T21:54:14.804Z,12.77
2018-12-05T21:57:02.266Z,13.20
2018-12-05T22:00:10.893Z,11.87
2018-12-05T22:03:21.744Z,12.27
2018-12-05T22:06:10.707Z,13.50
2018-12-05T22:08:58.344Z,11.67
2018-12-05T22:12:06.726Z,8.47
2018-12-05T22:14:54.031Z,8.37
2018-12-05T22:17:41.654Z,9.40
2018-12-05T22:20:50.047Z,6.13
2018-12-05T22:23:37.941Z,8.17
2018-12-05T22:26:25.159Z,11.27
2018-12-05T22:29:12.385Z,8.10
2018-12-05T22:31:59.678Z,11.33
2018-12-05T22:34:46.948Z,11.03
2018-12-05T22:37:55.329Z,13.07
2018-12-05T22:40:22.962Z,14.67
2018-12-05T22:43:10.198Z,25.50
2018-12-05T22:45:57.390Z,13.17
2018-12-05T22:48:44.611Z,9.93
2018-12-05T22:51:31.826Z,8.50
2018-12-05T22:54:19.004Z,9.23
2018-12-05T22:57:25.903Z,6.80
2018-12-05T23:00:13.387Z,6.03
2018-12-05T23:03:02.434Z,4.93
2018-12-05T23:05:49.487Z,6.60
2018-12-05T23:08:36.736Z,7.20
2018-12-05T23:11:24.053Z,7.20
2018-12-05T23:14:11.233Z,5.07
2018-12-05T23:16:58.757Z,5.80
2018-12-05T23:19:48.206Z,6.23
2018-12-05T23:22:18.261Z,5.23
2018-12-05T23:25:26.724Z,4.53
2018-12-05T23:28:14.629Z,5.80
2018-12-05T23:31:03.746Z,5.10
2018-12-05T23:33:50.918Z,4.13
2018-12-05T23:36:38.204Z,7.60
2018-12-05T23:39:46.609Z,5.23
2018-12-05T23:42:33.851Z,6.90
2018-12-05T23:45:21.346Z,5.27
2018-12-05T23:48:08.562Z,7.97
2018-12-05T23:50:55.781Z,6.53
2018-12-05T23:53:43.635Z,6.60
2018-12-05T23:56:30.812Z,5.57
2018-12-05T23:58:58.476Z,7.17
